sensor_id;sensor_type;location;lat;lon;timestamp;pressure;altitude;pressure_sealevel;temperature;humidity
5350;BME280;2697;42.144;24.794;2023-05-10T00:00:21;71191.19;;;11.60;100.00
5350;BME280;2697;42.144;24.794;2023-05-10T00:02:48;64354.63;;;11.61;100.00
5350;BME280;2697;42.144;24.794;2023-05-10T00:05:14;59567.13;;;11.54;100.00
5350;BME280;2697;42.144;24.794;2023-05-10T00:07:40;51396.59;;;11.64;100.00
5350;BME280;2697;42.144;24.794;2023-05-10T00:10:05;50032.16;;;11.61;100.00
5350;BME280;2697;42.144;24.794;2023-05-10T00:12:31;42543.31;;;11.51;100.00
5350;BME280;2697;42.144;24.794;2023-05-10T00:14:56;35073.53;;;11.45;100.00
5350;BME280;2697;42.144;24.794;2023-05-10T00:17:22;29308.94;;;11.34;100.00
5350;BME280;2697;42.144;24.794;2023-05-10T00:19:47;26611.91;;;11.55;100.00
5350;BME280;2697;42.144;24.794;2023-05-10T00:22:13;25255.06;;;11.47;100.00
5350;BME280;2697;42.144;24.794;2023-05-10T00:24:38;26947.69;;;11.50;100.00
5350;BME280;2697;42.144;24.794;2023-05-10T00:27:04;24240.88;;;11.47;100.00
5350;BME280;2697;42.144;24.794;2023-05-10T00:29:29;24576.41;;;11.41;100.00
5350;BME280;2697;42.144;24.794;2023-05-10T00:31:54;17819.31;;;11.37;100.00
5350;BME280;2697;42.144;24.794;2023-05-10T00:34:20;15118.81;;;11.31;100.00
5350;BME280;2697;42.144;24.794;2023-05-10T00:36:45;11073.50;;;11.26;100.00
5350;BME280;2697;42.144;24.794;2023-05-10T00:39:11;7369.19;;;11.20;100.00
5350;BME280;2697;42.144;24.794;2023-05-10T00:41:37;5015.81;;;11.32;100.00
5350;BME280;2697;42.144;24.794;2023-05-10T00:44:02;5016.13;;;11.35;100.00
5350;BME280;2697;42.144;24.794;2023-05-10T00:46:29;6024.72;;;11.30;100.00
5350;BME280;2697;42.144;24.794;2023-05-10T00:48:54;7369.75;;;11.24;100.00
5350;BME280;2697;42.144;24.794;2023-05-10T00:51:20;6358.66;;;11.09;100.00
5350;BME280;2697;42.144;24.794;2023-05-10T00:53:46;2323.72;;;10.91;100.00
5350;BME280;2697;42.144;24.794;2023-05-10T00:56:12;981.00;;;11.06;100.00
5350;BME280;2697;42.144;24.794;2023-05-10T00:58:38;644.66;;;10.90;100.00
5350;BME280;2697;42.144;24.794;2023-05-10T01:01:04;308.97;;;10.91;100.00
5350;BME280;2697;42.144;24.794;2023-05-10T01:03:31;2660.31;;;11.02;100.00
5350;BME280;2697;42.144;24.794;2023-05-10T01:05:57;4340.91;;;11.06;100.00
5350;BME280;2697;42.144;24.794;2023-05-10T01:08:22;5011.91;;;10.93;100.00
5350;BME280;2697;42.144;24.794;2023-05-10T01:10:48;4339.84;;;10.95;100.00
5350;BME280;2697;42.144;24.794;2023-05-10T01:13:28;7367.63;;;11.08;100.00
5350;BME280;2697;42.144;24.794;2023-05-10T01:15:56;9384.72;;;10.97;100.00
5350;BME280;2697;42.144;24.794;2023-05-10T01:18:21;8039.28;;;11.00;100.00
5350;BME280;2697;42.144;24.794;2023-05-10T01:20:48;6694.00;;;11.02;100.00
5350;BME280;2697;42.144;24.794;2023-05-10T01:23:41;5684.78;;;10.98;100.00
5350;BME280;2697;42.144;24.794;2023-05-10T01:34:34;-27.09;;;10.71;100.00
5350;BME280;2697;42.144;24.794;2023-05-10T01:37:07;-2040.22;;;10.90;100.00
5350;BME280;2697;42.144;24.794;2023-05-10T01:42:08;-2040.03;;;10.75;100.00
5350;BME280;2697;42.144;24.794;2023-05-10T01:47:32;-5727.41;;;10.70;100.00
5350;BME280;2697;42.144;24.794;2023-05-10T01:50:03;-5392.66;;;10.75;100.00
5350;BME280;2697;42.144;24.794;2023-05-10T01:52:37;-6063.16;;;10.79;100.00
5350;BME280;2697;42.144;24.794;2023-05-10T01:55:09;-4387.66;;;10.84;100.00
5350;BME280;2697;42.144;24.794;2023-05-10T01:57:37;-4721.81;;;10.65;100.00
5350;BME280;2697;42.144;24.794;2023-05-10T02:00:07;-5726.19;;;10.53;100.00
5350;BME280;2697;42.144;24.794;2023-05-10T02:02:37;-6730.91;;;10.52;100.00
5350;BME280;2697;42.144;24.794;2023-05-10T02:05:05;-7065.91;;;10.54;100.00
5350;BME280;2697;42.144;24.794;2023-05-10T02:07:34;-7400.81;;;10.54;100.00
5350;BME280;2697;42.144;24.794;2023-05-10T02:10:02;-7735.16;;;10.50;100.00
5350;BME280;2697;42.144;24.794;2023-05-10T02:12:28;-7402.59;;;10.72;100.00
5350;BME280;2697;42.144;24.794;2023-05-10T02:14:55;-6396.97;;;10.64;100.00
5350;BME280;2697;42.144;24.794;2023-05-10T02:17:20;-6061.41;;;10.56;100.00
5350;BME280;2697;42.144;24.794;2023-05-10T02:19:47;-5726.38;;;10.55;100.00
5350;BME280;2697;42.144;24.794;2023-05-10T02:22:13;-6060.53;;;10.45;100.00
5350;BME280;2697;42.144;24.794;2023-05-10T02:24:41;-7064.97;;;10.44;100.00
5350;BME280;2697;42.144;24.794;2023-05-10T02:27:08;-7735.22;;;10.50;100.00
5350;BME280;2697;42.144;24.794;2023-05-10T02:29:35;-7735.09;;;10.49;100.00
5350;BME280;2697;42.144;24.794;2023-05-10T02:32:02;-7733.50;;;10.34;100.00
5350;BME280;2697;42.144;24.794;2023-05-10T02:34:28;-9072.75;;;10.40;100.00
5350;BME280;2697;42.144;24.794;2023-05-10T02:36:55;-8739.16;;;10.48;100.00
5350;BME280;2697;42.144;24.794;2023-05-10T02:39:21;-9072.94;;;10.41;100.00
5350;BME280;2697;42.144;24.794;2023-05-10T02:41:48;-11079.69;;;10.39;100.00
5350;BME280;2697;42.144;24.794;2023-05-10T02:44:19;-11414.19;;;10.39;100.00
5350;BME280;2697;42.144;24.794;2023-05-10T02:46:45;-10411.16;;;10.41;100.00
5350;BME280;2697;42.144;24.794;2023-05-10T02:49:12;-7064.81;;;10.42;100.00
5350;BME280;2697;42.144;24.794;2023-05-10T02:51:41;-7064.13;;;10.35;100.00
5350;BME280;2697;42.144;24.794;2023-05-10T02:54:12;-7735.63;;;10.54;100.00
5350;BME280;2697;42.144;24.794;2023-05-10T02:56:44;-6396.03;;;10.52;100.00
5350;BME280;2697;42.144;24.794;2023-05-10T02:59:12;-4386.28;;;10.57;100.00
5350;BME280;2697;42.144;24.794;2023-05-10T03:01:37;-3715.53;;;10.46;100.00
5350;BME280;2697;42.144;24.794;2023-05-10T03:04:03;-5724.94;;;10.36;100.00
5350;BME280;2697;42.144;24.794;2023-05-10T03:06:29;-7734.19;;;10.41;100.00
5350;BME280;2697;42.144;24.794;2023-05-10T03:08:54;-8403.16;;;10.37;100.00
5350;BME280;2697;42.144;24.794;2023-05-10T03:14:07;-7734.34;;;10.42;100.00
5350;BME280;2697;42.144;24.794;2023-05-10T03:17:11;-10411.16;;;10.41;100.00
5350;BME280;2697;42.144;24.794;2023-05-10T03:19:48;-9071.19;;;10.27;100.00
5350;BME280;2697;42.144;24.794;2023-05-10T03:22:25;-9407.25;;;10.39;100.00
5350;BME280;2697;42.144;24.794;2023-05-10T03:24:54;-8739.41;;;10.50;100.00
5350;BME280;2697;42.144;24.794;2023-05-10T03:27:22;-6062.00;;;10.64;100.00
5350;BME280;2697;42.144;24.794;2023-05-10T03:29:47;-4385.63;;;10.45;100.00
5350;BME280;2697;42.144;24.794;2023-05-10T03:32:13;-4386.00;;;10.52;100.00
5350;BME280;2697;42.144;24.794;2023-05-10T03:34:42;-5056.41;;;10.56;100.00
5350;BME280;2697;42.144;24.794;2023-05-10T03:37:08;-3716.09;;;10.60;100.00
5350;BME280;2697;42.144;24.794;2023-05-10T03:39:34;-5056.16;;;10.52;100.00
5350;BME280;2697;42.144;24.794;2023-05-10T03:41:59;-7400.88;;;10.55;100.00
5350;BME280;2697;42.144;24.794;2023-05-10T03:44:24;-6731.09;;;10.54;100.00
5350;BME280;2697;42.144;24.794;2023-05-10T03:46:50;-4721.88;;;10.66;100.00
5350;BME280;2697;42.144;24.794;2023-05-10T03:49:15;-3716.84;;;10.78;100.00
5350;BME280;2697;42.144;24.794;2023-05-10T03:51:40;308.94;;;10.90;100.00
5350;BME280;2697;42.144;24.794;2023-05-10T03:54:06;3667.69;;;10.94;100.00
5350;BME280;2697;42.144;24.794;2023-05-10T03:56:31;4338.47;;;10.79;100.00
5350;BME280;2697;42.144;24.794;2023-05-10T03:58:57;1987.59;;;10.86;100.00
5350;BME280;2697;42.144;24.794;2023-05-10T04:01:23;-26.91;;;10.80;100.00
5350;BME280;2697;42.144;24.794;2023-05-10T04:03:48;1652.38;;;10.98;100.00
5350;BME280;2697;42.144;24.794;2023-05-10T04:06:14;2324.09;;;10.97;100.00
5350;BME280;2697;42.144;24.794;2023-05-10T04:08:39;2660.56;;;11.06;100.00
5350;BME280;2697;42.144;24.794;2023-05-10T04:11:09;6025.16;;;11.33;100.00
5350;BME280;2697;42.144;24.794;2023-05-10T04:13:35;13767.50;;;11.20;100.00
5350;BME280;2697;42.144;24.794;2023-05-10T04:16:01;18830.88;;;11.34;100.00
5350;BME280;2697;42.144;24.794;2023-05-10T04:18:26;24580.47;;;11.51;100.00
5350;BME280;2697;42.144;24.794;2023-05-10T04:20:51;18824.91;;;11.16;100.00
5350;BME280;2697;42.144;24.794;2023-05-10T04:23:17;12084.25;;;11.27;100.00
5350;BME280;2697;42.144;24.794;2023-05-10T04:25:42;14105.28;;;11.23;100.00
5350;BME280;2697;42.144;24.794;2023-05-10T04:28:08;22551.19;;;11.48;100.00
5350;BME280;2697;42.144;24.794;2023-05-10T04:30:33;16811.03;;;11.51;100.00
5350;BME280;2697;42.144;24.794;2023-05-10T04:32:59;18831.38;;;11.35;100.00
5350;BME280;2697;42.144;24.794;2023-05-10T04:35:25;24925.75;;;11.67;100.00
5350;BME280;2697;42.144;24.794;2023-05-10T04:37:50;28648.16;;;11.67;100.00
5350;BME280;2697;42.144;24.794;2023-05-10T04:40:15;33729.28;;;11.65;100.00
5350;BME280;2697;42.144;24.794;2023-05-10T04:42:41;39151.84;;;11.57;100.00
5350;BME280;2697;42.144;24.794;2023-05-10T04:45:07;42525.88;;;11.27;100.00
5350;BME280;2697;42.144;24.794;2023-05-10T04:47:32;26602.00;;;11.33;100.00
5350;BME280;2697;42.144;24.794;2023-05-10T04:49:58;39504.78;;;11.78;100.00
5350;BME280;2697;42.144;24.794;2023-05-10T04:52:23;54809.41;;;11.71;100.00
5350;BME280;2697;42.144;24.794;2023-05-10T04:54:49;51393.09;;;11.60;100.00
5350;BME280;2697;42.144;24.794;2023-05-10T04:57:14;49019.44;;;11.71;100.00
5350;BME280;2697;42.144;24.794;2023-05-10T04:59:40;62653.22;;;11.67;100.00
5350;BME280;2697;42.144;24.794;2023-05-10T05:02:05;69478.78;;;11.58;100.00
5350;BME280;2697;42.144;24.794;2023-05-10T05:04:30;85970.88;;;11.86;100.00
5350;BME280;2697;42.144;24.794;2023-05-10T05:06:56;86998.19;;;11.84;100.00
5350;BME280;2697;42.144;24.794;2023-05-10T05:09:22;72210.00;;;11.53;100.00
5350;BME280;2697;42.144;24.794;2023-05-10T05:11:47;70862.81;;;11.71;100.00
5350;BME280;2697;42.144;24.794;2023-05-10T05:14:12;81822.59;;;11.66;100.00
5350;BME280;2697;42.144;24.794;2023-05-10T05:16:38;106680.22;;;12.09;100.00
5350;BME280;2697;42.144;24.794;2023-05-10T05:19:03;141396.47;;;12.17;100.00
5350;BME280;2697;42.144;24.794;2023-05-10T05:21:28;137187.75;;;12.04;100.00
5350;BME280;2697;42.144;24.794;2023-05-10T05:23:54;123330.53;;;12.24;100.00
5350;BME280;2697;42.144;24.794;2023-05-10T05:26:19;118092.84;;;12.06;100.00
5350;BME280;2697;42.144;24.794;2023-05-10T05:28:45;145945.34;;;12.23;100.00
5350;BME280;2697;42.144;24.794;2023-05-10T05:31:10;107103.53;;;12.52;100.00
5350;BME280;2697;42.144;24.794;2023-05-10T05:33:36;100570.34;;;12.71;100.00
5350;BME280;2697;42.144;24.794;2023-05-10T05:36:05;115067.25;;;12.54;100.00
5350;BME280;2697;42.144;24.794;2023-05-10T05:38:31;127259.00;;;12.76;100.00
5350;BME280;2697;42.144;24.794;2023-05-10T05:40:57;120913.47;;;12.30;100.00
5350;BME280;2697;42.144;24.794;2023-05-10T05:43:22;86686.00;;;12.06;100.00
5350;BME280;2697;42.144;24.794;2023-05-10T05:45:48;77055.28;;;11.93;100.00
5350;BME280;2697;42.144;24.794;2023-05-10T05:48:13;78468.88;;;12.25;100.00
5350;BME280;2697;42.144;24.794;2023-05-10T05:50:38;100874.78;;;12.47;100.00
5350;BME280;2697;42.144;24.794;2023-05-10T05:53:04;106396.75;;;12.44;100.00
5350;BME280;2697;42.144;24.794;2023-05-10T05:55:29;81883.53;;;12.11;100.00
5350;BME280;2697;42.144;24.794;2023-05-10T05:57:56;95376.75;;;12.61;100.00
5350;BME280;2697;42.144;24.794;2023-05-10T06:00:22;134512.22;;;12.52;100.00
5350;BME280;2697;42.144;24.794;2023-05-10T06:02:47;134199.31;;;12.68;100.00
5350;BME280;2697;42.144;24.794;2023-05-10T06:05:13;139714.69;;;12.43;100.00
5350;BME280;2697;42.144;24.794;2023-05-10T06:07:40;155883.13;;;12.85;100.00
5350;BME280;2697;42.144;24.794;2023-05-10T06:10:07;155858.06;;;12.75;100.00
5350;BME280;2697;42.144;24.794;2023-05-10T06:12:33;143535.28;;;12.37;100.00
5350;BME280;2697;42.144;24.794;2023-05-10T06:14:58;118507.41;;;12.41;100.00
5350;BME280;2697;42.144;24.794;2023-05-10T06:17:23;94664.75;;;12.46;100.00
5350;BME280;2697;42.144;24.794;2023-05-10T06:19:49;92231.59;;;12.33;100.00
5350;BME280;2697;42.144;24.794;2023-05-10T06:22:15;79166.69;;;12.34;100.00
5350;BME280;2697;42.144;24.794;2023-05-10T06:24:40;99500.88;;;12.51;100.00
5350;BME280;2697;42.144;24.794;2023-05-10T06:27:05;140129.53;;;12.71;100.00
5350;BME280;2697;42.144;24.794;2023-05-10T06:29:31;133148.16;;;12.65;100.00
5350;BME280;2697;42.144;24.794;2023-05-10T06:31:56;118575.50;;;12.75;100.00
5350;BME280;2697;42.144;24.794;2023-05-10T06:34:22;131465.97;;;12.92;100.00
5350;BME280;2697;42.144;24.794;2023-05-10T06:36:47;147166.41;;;12.95;100.00
5350;BME280;2697;42.144;24.794;2023-05-10T06:39:12;155941.16;;;13.07;100.00
5350;BME280;2697;42.144;24.794;2023-05-10T06:41:38;156013.78;;;13.35;100.00
5350;BME280;2697;42.144;24.794;2023-05-10T06:44:03;156089.00;;;13.64;100.00
5350;BME280;2697;42.144;24.794;2023-05-10T06:46:29;156172.19;;;13.96;100.00
5350;BME280;2697;42.144;24.794;2023-05-10T06:48:54;156285.72;;;14.40;100.00
5350;BME280;2697;42.144;24.794;2023-05-10T06:51:20;156304.25;;;14.47;100.00
5350;BME280;2697;42.144;24.794;2023-05-10T06:53:46;156087.69;;;13.64;100.00
5350;BME280;2697;42.144;24.794;2023-05-10T06:56:12;156244.81;;;14.24;100.00
5350;BME280;2697;42.144;24.794;2023-05-10T06:58:37;156067.88;;;13.56;100.00
5350;BME280;2697;42.144;24.794;2023-05-10T07:01:03;156036.22;;;13.44;100.00
5350;BME280;2697;42.144;24.794;2023-05-10T07:03:29;156095.56;;;13.67;100.00
5350;BME280;2697;42.144;24.794;2023-05-10T07:06:02;156020.34;;;13.38;100.00
5350;BME280;2697;42.144;24.794;2023-05-10T07:08:32;156158.97;;;13.91;100.00
5350;BME280;2697;42.144;24.794;2023-05-10T07:11:05;156071.81;;;13.58;100.00
5350;BME280;2697;42.144;24.794;2023-05-10T07:13:33;156226.31;;;14.17;100.00
5350;BME280;2697;42.144;24.794;2023-05-10T07:16:00;156103.53;;;13.70;100.00
5350;BME280;2697;42.144;24.794;2023-05-10T07:18:26;156222.34;;;14.16;100.00
5350;BME280;2697;42.144;24.794;2023-05-10T07:20:52;156137.84;;;13.83;100.00
5350;BME280;2697;42.144;24.794;2023-05-10T07:23:17;156173.50;;;13.97;100.00
5350;BME280;2697;42.144;24.794;2023-05-10T07:25:47;156243.50;;;14.24;100.00
5350;BME280;2697;42.144;24.794;2023-05-10T07:28:13;156312.16;;;14.50;100.00
5350;BME280;2697;42.144;24.794;2023-05-10T07:30:39;156267.25;;;14.33;100.00
5350;BME280;2697;42.144;24.794;2023-05-10T07:33:05;156376.91;;;14.75;100.00
5350;BME280;2697;42.144;24.794;2023-05-10T07:35:30;156431.06;;;14.96;100.00
5350;BME280;2697;42.144;24.794;2023-05-10T07:37:56;156405.97;;;14.87;100.00
5350;BME280;2697;42.144;24.794;2023-05-10T07:40:21;156367.69;;;14.72;100.00
5350;BME280;2697;42.144;24.794;2023-05-10T07:42:47;156454.84;;;15.05;100.00
5350;BME280;2697;42.144;24.794;2023-05-10T07:45:12;156479.97;;;15.15;100.00
5350;BME280;2697;42.144;24.794;2023-05-10T07:47:37;156489.25;;;15.19;100.00
5350;BME280;2697;42.144;24.794;2023-05-10T07:50:03;156721.91;;;16.08;100.00
5350;BME280;2697;42.144;24.794;2023-05-10T07:52:30;156737.78;;;16.14;100.00
5350;BME280;2697;42.144;24.794;2023-05-10T07:54:55;156735.16;;;16.13;96.15
5350;BME280;2697;42.144;24.794;2023-05-10T07:57:22;156621.44;;;15.70;100.00
5350;BME280;2697;42.144;24.794;2023-05-10T07:59:47;156503.75;;;15.24;100.00
5350;BME280;2697;42.144;24.794;2023-05-10T08:02:13;156646.56;;;15.79;97.50
5350;BME280;2697;42.144;24.794;2023-05-10T08:04:38;156550.00;;;15.42;100.00
5350;BME280;2697;42.144;24.794;2023-05-10T08:07:03;156552.63;;;15.43;100.00
5350;BME280;2697;42.144;24.794;2023-05-10T08:09:29;156592.31;;;15.58;99.91
5350;BME280;2697;42.144;24.794;2023-05-10T08:11:54;156349.19;;;14.65;100.00
5350;BME280;2697;42.144;24.794;2023-05-10T08:14:20;156227.63;;;14.18;100.00
5350;BME280;2697;42.144;24.794;2023-05-10T08:16:45;156477.31;;;15.14;99.97
5350;BME280;2697;42.144;24.794;2023-05-10T08:19:11;156460.13;;;15.07;98.91
5350;BME280;2697;42.144;24.794;2023-05-10T08:21:36;156365.03;;;14.71;98.55
5350;BME280;2697;42.144;24.794;2023-05-10T08:24:01;156355.78;;;14.67;96.29
5350;BME280;2697;42.144;24.794;2023-05-10T08:26:27;156395.41;;;14.82;100.00
5350;BME280;2697;42.144;24.794;2023-05-10T08:28:53;156355.78;;;14.67;100.00
5350;BME280;2697;42.144;24.794;2023-05-10T08:31:18;156458.81;;;15.07;98.97
5350;BME280;2697;42.144;24.794;2023-05-10T08:33:43;156444.31;;;15.01;95.65
5350;BME280;2697;42.144;24.794;2023-05-10T08:36:09;156509.06;;;15.26;93.86
5350;BME280;2697;42.144;24.794;2023-05-10T08:38:34;156552.63;;;15.43;90.17
5350;BME280;2697;42.144;24.794;2023-05-10T08:41:01;156580.38;;;15.54;91.55
5350;BME280;2697;42.144;24.794;2023-05-10T08:43:28;156605.59;;;15.63;91.29
5350;BME280;2697;42.144;24.794;2023-05-10T08:45:59;156650.50;;;15.81;86.16
5350;BME280;2697;42.144;24.794;2023-05-10T08:48:26;156478.63;;;15.15;92.38
5350;BME280;2697;42.144;24.794;2023-05-10T08:50:54;156536.81;;;15.37;95.88
5350;BME280;2697;42.144;24.794;2023-05-10T08:53:24;156811.84;;;16.43;88.53
5350;BME280;2697;42.144;24.794;2023-05-10T08:55:51;156785.41;;;16.33;85.66
5350;BME280;2697;42.144;24.794;2023-05-10T08:58:16;156671.66;;;15.89;85.34
5350;BME280;2697;42.144;24.794;2023-05-10T09:00:44;156622.75;;;15.70;87.24
5350;BME280;2697;42.144;24.794;2023-05-10T09:03:10;156728.56;;;16.11;85.37
5350;BME280;2697;42.144;24.794;2023-05-10T09:05:37;156739.13;;;16.15;84.15
5350;BME280;2697;42.144;24.794;2023-05-10T09:08:02;156735.16;;;16.13;82.89
5350;BME280;2697;42.144;24.794;2023-05-10T09:10:28;156798.59;;;16.38;79.62
5350;BME280;2697;42.144;24.794;2023-05-10T09:12:57;156641.28;;;15.77;82.23
5350;BME280;2697;42.144;24.794;2023-05-10T09:15:23;156576.44;;;15.52;87.16
5350;BME280;2697;42.144;24.794;2023-05-10T09:17:49;156729.88;;;16.11;81.83
5350;BME280;2697;42.144;24.794;2023-05-10T09:20:14;156692.84;;;15.97;83.01
5350;BME280;2697;42.144;24.794;2023-05-10T09:22:40;156633.34;;;15.74;82.55
5350;BME280;2697;42.144;24.794;2023-05-10T09:25:06;156769.53;;;16.27;81.37
5350;BME280;2697;42.144;24.794;2023-05-10T09:27:33;156687.56;;;15.95;83.89
5350;BME280;2697;42.144;24.794;2023-05-10T09:29:58;156655.84;;;15.83;84.02
5350;BME280;2697;42.144;24.794;2023-05-10T09:32:40;156752.38;;;16.20;85.89
5350;BME280;2697;42.144;24.794;2023-05-10T09:35:17;156777.50;;;16.30;80.81
5350;BME280;2697;42.144;24.794;2023-05-10T09:37:44;156687.56;;;15.95;83.46
5350;BME280;2697;42.144;24.794;2023-05-10T09:40:21;156864.75;;;16.63;79.23
5350;BME280;2697;42.144;24.794;2023-05-10T09:42:58;156870.03;;;16.65;79.76
5350;BME280;2697;42.144;24.794;2023-05-10T09:45:26;156863.44;;;16.63;77.67
5350;BME280;2697;42.144;24.794;2023-05-10T09:47:51;156868.72;;;16.65;77.40
5350;BME280;2697;42.144;24.794;2023-05-10T09:50:17;156846.22;;;16.56;78.29
5350;BME280;2697;42.144;24.794;2023-05-10T09:53:02;156798.59;;;16.38;79.05
5350;BME280;2697;42.144;24.794;2023-05-10T09:58:06;156735.16;;;16.13;78.29
5350;BME280;2697;42.144;24.794;2023-05-10T10:00:42;156735.16;;;16.13;80.45
5350;BME280;2697;42.144;24.794;2023-05-10T10:03:21;156680.97;;;15.92;81.26
5350;BME280;2697;42.144;24.794;2023-05-10T10:05:48;156788.06;;;16.34;80.88
5350;BME280;2697;42.144;24.794;2023-05-10T10:08:14;156666.41;;;15.87;81.32
5350;BME280;2697;42.144;24.794;2023-05-10T10:10:41;156721.91;;;16.08;80.09
5350;BME280;2697;42.144;24.794;2023-05-10T10:13:07;156662.44;;;15.85;82.03
5350;BME280;2697;42.144;24.794;2023-05-10T10:15:34;156665.06;;;15.86;84.27
5350;BME280;2697;42.144;24.794;2023-05-10T10:18:00;156676.94;;;15.91;84.86
5350;BME280;2697;42.144;24.794;2023-05-10T10:20:26;156618.78;;;15.68;85.45
5350;BME280;2697;42.144;24.794;2023-05-10T10:22:52;156561.94;;;15.47;86.06
5350;BME280;2697;42.144;24.794;2023-05-10T10:25:18;156605.59;;;15.63;83.25
5350;BME280;2697;42.144;24.794;2023-05-10T10:28:00;156772.16;;;16.28;77.48
5350;BME280;2697;42.144;24.794;2023-05-10T10:30:46;156846.22;;;16.56;75.91
5350;BME280;2697;42.144;24.794;2023-05-10T10:33:51;156899.25;;;16.76;75.39
5350;BME280;2697;42.144;24.794;2023-05-10T10:36:20;156938.91;;;16.92;71.59
5350;BME280;2697;42.144;24.794;2023-05-10T10:41:30;156977.28;;;17.06;68.63
5350;BME280;2697;42.144;24.794;2023-05-10T10:47:21;157095.09;;;17.52;66.28
5350;BME280;2697;42.144;24.794;2023-05-10T10:50:08;157064.63;;;17.40;68.26
5350;BME280;2697;42.144;24.794;2023-05-10T10:52:35;157129.50;;;17.65;71.61
5350;BME280;2697;42.144;24.794;2023-05-10T10:57:53;157083.16;;;17.47;72.36
5350;BME280;2697;42.144;24.794;2023-05-10T11:00:35;157071.25;;;17.43;73.06
5350;BME280;2697;42.144;24.794;2023-05-10T11:03:11;157175.88;;;17.83;67.79
5350;BME280;2697;42.144;24.794;2023-05-10T11:05:50;157097.75;;;17.53;69.16
5350;BME280;2697;42.144;24.794;2023-05-10T11:08:29;156917.72;;;16.84;73.72
5350;BME280;2697;42.144;24.794;2023-05-10T11:13:53;156725.88;;;16.10;76.26
5350;BME280;2697;42.144;24.794;2023-05-10T11:16:27;156860.78;;;16.62;72.88
5350;BME280;2697;42.144;24.794;2023-05-10T11:19:10;156908.47;;;16.80;73.32
5350;BME280;2697;42.144;24.794;2023-05-10T11:21:49;156973.31;;;17.05;70.14
5350;BME280;2697;42.144;24.794;2023-05-10T11:24:20;156949.50;;;16.96;69.31
5350;BME280;2697;42.144;24.794;2023-05-10T11:26:45;156844.91;;;16.56;72.08
5350;BME280;2697;42.144;24.794;2023-05-10T11:29:12;157068.63;;;17.42;67.75
5350;BME280;2697;42.144;24.794;2023-05-10T11:31:44;157002.44;;;17.16;67.13
5350;BME280;2697;42.144;24.794;2023-05-10T11:34:10;156999.78;;;17.15;67.12
5350;BME280;2697;42.144;24.794;2023-05-10T11:36:36;157264.63;;;18.17;61.45
5350;BME280;2697;42.144;24.794;2023-05-10T11:39:03;157252.69;;;18.12;60.60
5350;BME280;2697;42.144;24.794;2023-05-10T11:41:29;157202.38;;;17.93;63.53
5350;BME280;2697;42.144;24.794;2023-05-10T11:43:56;157170.59;;;17.81;62.94
5350;BME280;2697;42.144;24.794;2023-05-10T11:46:24;157170.59;;;17.81;62.18
5350;BME280;2697;42.144;24.794;2023-05-10T11:48:52;157083.16;;;17.47;64.33
5350;BME280;2697;42.144;24.794;2023-05-10T11:51:22;157063.28;;;17.39;67.32
5350;BME280;2697;42.144;24.794;2023-05-10T11:53:49;157125.53;;;17.63;67.16
5350;BME280;2697;42.144;24.794;2023-05-10T11:56:15;156830.38;;;16.50;69.71
5350;BME280;2697;42.144;24.794;2023-05-10T11:58:40;157028.91;;;17.26;65.35
5350;BME280;2697;42.144;24.794;2023-05-10T12:01:07;157084.47;;;17.48;62.22
5350;BME280;2697;42.144;24.794;2023-05-10T12:03:34;157032.88;;;17.28;66.17
5350;BME280;2697;42.144;24.794;2023-05-10T12:06:00;157002.44;;;17.16;64.18
5350;BME280;2697;42.144;24.794;2023-05-10T12:08:28;157044.78;;;17.32;64.95
5350;BME280;2697;42.144;24.794;2023-05-10T12:11:04;157201.03;;;17.92;65.80
5350;BME280;2697;42.144;24.794;2023-05-10T12:13:29;157158.66;;;17.76;65.47
5350;BME280;2697;42.144;24.794;2023-05-10T12:15:57;157093.78;;;17.51;63.94
5350;BME280;2697;42.144;24.794;2023-05-10T12:18:23;157208.97;;;17.95;64.13
5350;BME280;2697;42.144;24.794;2023-05-10T12:20:52;157406.41;;;18.71;62.64
5350;BME280;2697;42.144;24.794;2023-05-10T12:23:19;157415.69;;;18.75;63.61
5350;BME280;2697;42.144;24.794;2023-05-10T12:25:45;157223.56;;;18.01;63.74
5350;BME280;2697;42.144;24.794;2023-05-10T12:28:10;157010.34;;;17.19;65.22
5350;BME280;2697;42.144;24.794;2023-05-10T12:30:36;157047.44;;;17.33;63.12
5350;BME280;2697;42.144;24.794;2023-05-10T12:33:12;157064.63;;;17.40;63.27
5350;BME280;2697;42.144;24.794;2023-05-10T12:35:48;157019.66;;;17.23;63.42
5350;BME280;2697;42.144;24.794;2023-05-10T12:40:55;157142.81;;;17.70;61.56
5350;BME280;2697;42.144;24.794;2023-05-10T12:43:20;157415.69;;;18.75;59.79
5350;BME280;2697;42.144;24.794;2023-05-10T12:45:46;157393.16;;;18.66;58.49
5350;BME280;2697;42.144;24.794;2023-05-10T12:48:14;157148.09;;;17.72;61.68
5350;BME280;2697;42.144;24.794;2023-05-10T12:50:39;157110.94;;;17.58;62.69
5350;BME280;2697;42.144;24.794;2023-05-10T12:53:05;157325.53;;;18.40;59.73
5350;BME280;2697;42.144;24.794;2023-05-10T12:55:30;157261.97;;;18.16;60.09
5350;BME280;2697;42.144;24.794;2023-05-10T12:57:56;157271.22;;;18.19;60.83
5350;BME280;2697;42.144;24.794;2023-05-10T13:00:21;157167.97;;;17.80;62.49
5350;BME280;2697;42.144;24.794;2023-05-10T13:02:47;157338.78;;;18.45;60.37
5350;BME280;2697;42.144;24.794;2023-05-10T13:05:12;157524.31;;;19.17;58.16
5350;BME280;2697;42.144;24.794;2023-05-10T13:07:38;157362.63;;;18.55;58.39
5350;BME280;2697;42.144;24.794;2023-05-10T13:10:05;157227.53;;;18.03;59.07
5350;BME280;2697;42.144;24.794;2023-05-10T13:12:31;157121.56;;;17.62;60.33
5350;BME280;2697;42.144;24.794;2023-05-10T13:14:56;157055.38;;;17.36;60.50
5350;BME280;2697;42.144;24.794;2023-05-10T13:17:22;157248.72;;;18.11;58.53
5350;BME280;2697;42.144;24.794;2023-05-10T13:19:47;157306.97;;;18.33;55.80
5350;BME280;2697;42.144;24.794;2023-05-10T13:22:13;157337.47;;;18.45;54.95
5350;BME280;2697;42.144;24.794;2023-05-10T13:24:38;157246.06;;;18.10;59.08
5350;BME280;2697;42.144;24.794;2023-05-10T13:27:03;157110.94;;;17.58;58.49
5350;BME280;2697;42.144;24.794;2023-05-10T13:29:29;157158.66;;;17.76;57.61
5350;BME280;2697;42.144;24.794;2023-05-10T13:31:54;157362.63;;;18.55;56.89
5350;BME280;2697;42.144;24.794;2023-05-10T13:34:19;157383.84;;;18.63;58.17